createdAt,value
2023-06-27T00:01:00.182Z,30.76
2023-06-27T00:03:26.863Z,30.75
2023-06-27T00:05:53.638Z,30.74
2023-06-27T00:08:20.283Z,30.73
2023-06-27T00:10:46.877Z,30.72
2023-06-27T00:13:13.440Z,30.70
2023-06-27T00:15:40.254Z,30.71
2023-06-27T00:18:07.012Z,30.70
2023-06-27T00:20:33.576Z,30.68
2023-06-27T00:23:00.204Z,30.66
2023-06-27T00:25:26.796Z,30.66
2023-06-27T00:27:53.373Z,30.65
2023-06-27T00:30:19.973Z,30.65
2023-06-27T00:32:46.589Z,30.64
2023-06-27T00:35:13.182Z,30.66
2023-06-27T00:37:39.781Z,30.65
2023-06-27T00:40:06.366Z,30.67
2023-06-27T00:42:32.931Z,30.69
2023-06-27T00:44:59.514Z,30.70
2023-06-27T00:47:26.117Z,30.71
2023-06-27T00:49:52.775Z,30.70
2023-06-27T00:52:19.419Z,30.70
2023-06-27T00:54:45.986Z,30.70
2023-06-27T00:57:12.672Z,30.68
2023-06-27T00:59:39.272Z,30.69
2023-06-27T01:02:05.899Z,30.66
2023-06-27T01:04:32.493Z,30.64
2023-06-27T01:06:59.115Z,30.63
2023-06-27T01:09:25.725Z,30.62
2023-06-27T01:11:52.309Z,30.61
2023-06-27T01:14:18.904Z,30.59
2023-06-27T01:16:45.481Z,30.58
2023-06-27T01:19:12.080Z,30.58
2023-06-27T01:21:38.665Z,30.58
2023-06-27T01:24:05.232Z,30.57
2023-06-27T01:26:31.825Z,30.58
2023-06-27T01:28:58.404Z,30.59
2023-06-27T01:31:25.041Z,30.62
2023-06-27T01:33:51.661Z,30.62
2023-06-27T01:36:18.259Z,30.64
2023-06-27T01:38:44.931Z,30.65
2023-06-27T01:41:11.521Z,30.64
2023-06-27T01:43:38.093Z,30.64
2023-06-27T01:46:04.740Z,30.64
2023-06-27T01:48:31.380Z,30.62
2023-06-27T01:50:57.977Z,30.62
2023-06-27T01:53:24.599Z,30.60
2023-06-27T01:55:51.213Z,30.59
2023-06-27T01:58:17.826Z,30.57
2023-06-27T02:00:44.503Z,30.54
2023-06-27T02:03:12.840Z,30.53
2023-06-27T02:05:39.790Z,30.52
2023-06-27T02:08:06.654Z,30.51
2023-06-27T02:10:33.254Z,30.50
2023-06-27T02:12:59.841Z,30.50
2023-06-27T02:15:26.441Z,30.49
2023-06-27T02:17:53.059Z,30.50
2023-06-27T02:20:19.659Z,30.48
2023-06-27T02:22:46.251Z,30.50
2023-06-27T02:25:12.827Z,30.52
2023-06-27T02:27:39.432Z,30.55
2023-06-27T02:30:06.049Z,30.57
2023-06-27T02:32:32.704Z,30.58
2023-06-27T02:34:59.311Z,30.59
2023-06-27T02:37:25.925Z,30.58
2023-06-27T02:39:52.562Z,30.57
2023-06-27T02:42:19.147Z,30.57
2023-06-27T02:44:45.752Z,30.56
2023-06-27T02:47:12.334Z,30.52
2023-06-27T02:49:38.908Z,30.51
2023-06-27T02:52:05.535Z,30.50
2023-06-27T02:54:32.178Z,30.48
2023-06-27T02:56:58.785Z,30.47
2023-06-27T02:59:25.372Z,30.46
2023-06-27T03:01:51.994Z,30.46
2023-06-27T03:04:19.936Z,30.45
2023-06-27T03:06:46.792Z,30.46
2023-06-27T03:09:13.428Z,30.45
2023-06-27T03:11:40.046Z,30.45
2023-06-27T03:14:06.635Z,30.44
2023-06-27T03:16:33.223Z,30.43
2023-06-27T03:18:59.840Z,30.46
2023-06-27T03:21:26.436Z,30.47
2023-06-27T03:23:53.031Z,30.49
2023-06-27T03:26:19.630Z,30.48
2023-06-27T03:28:46.221Z,30.50
2023-06-27T03:31:12.798Z,30.51
2023-06-27T03:33:39.399Z,30.50
2023-06-27T03:36:05.988Z,30.51
2023-06-27T03:38:32.591Z,30.49
2023-06-27T03:40:59.205Z,30.48
2023-06-27T03:43:25.801Z,30.47
2023-06-27T03:45:52.420Z,30.50
2023-06-27T03:48:19.007Z,30.48
2023-06-27T03:50:45.590Z,30.49
2023-06-27T03:53:12.187Z,30.46
2023-06-27T03:55:39.257Z,30.44
2023-06-27T03:58:06.124Z,30.44
2023-06-27T04:00:32.730Z,30.44
2023-06-27T04:02:59.362Z,30.43
2023-06-27T04:05:25.962Z,30.45
2023-06-27T04:07:52.563Z,30.45
2023-06-27T04:10:19.157Z,30.46
2023-06-27T04:12:45.762Z,30.44
2023-06-27T04:15:12.334Z,30.44
2023-06-27T04:17:39.067Z,30.43
2023-06-27T04:20:05.869Z,30.43
2023-06-27T04:22:32.437Z,30.42
2023-06-27T04:24:59.029Z,30.42
2023-06-27T04:27:25.603Z,30.40
2023-06-27T04:29:52.182Z,30.39
2023-06-27T04:32:18.803Z,30.38
2023-06-27T04:34:45.427Z,30.36
2023-06-27T04:37:12.030Z,30.37
2023-06-27T04:39:38.694Z,30.37
2023-06-27T04:42:05.256Z,30.37
2023-06-27T04:44:31.844Z,30.36
2023-06-27T04:46:58.448Z,30.37
2023-06-27T04:49:25.065Z,30.38
2023-06-27T04:51:51.675Z,30.39
2023-06-27T04:54:18.281Z,30.40
2023-06-27T04:56:44.871Z,30.40
2023-06-27T04:59:11.476Z,30.41
2023-06-27T05:01:38.057Z,30.40
2023-06-27T05:04:04.673Z,30.41
2023-06-27T05:06:31.283Z,30.41
2023-06-27T05:08:57.871Z,30.39
2023-06-27T05:11:24.469Z,30.37
2023-06-27T05:13:51.040Z,30.37
2023-06-27T05:16:17.634Z,30.35
2023-06-27T05:18:44.306Z,30.30
2023-06-27T05:21:10.912Z,30.29
2023-06-27T05:23:37.490Z,30.28
2023-06-27T05:26:04.092Z,30.28
2023-06-27T05:28:30.667Z,30.32
2023-06-27T05:30:57.310Z,30.35
2023-06-27T05:33:23.959Z,30.37
2023-06-27T05:35:50.571Z,30.39
2023-06-27T05:38:17.173Z,30.39
2023-06-27T05:40:43.766Z,30.40
2023-06-27T05:43:10.356Z,30.40
2023-06-27T05:45:37.163Z,30.39
2023-06-27T05:48:04.289Z,30.37
2023-06-27T05:50:30.983Z,30.36
2023-06-27T05:52:57.563Z,30.34
2023-06-27T05:55:24.159Z,30.34
2023-06-27T05:57:50.734Z,30.34
2023-06-27T06:00:17.320Z,30.30
2023-06-27T06:02:44.077Z,30.19
2023-06-27T06:05:10.803Z,30.12
2023-06-27T06:07:37.393Z,30.08
2023-06-27T06:10:03.985Z,30.14
2023-06-27T06:12:30.594Z,30.18
2023-06-27T06:14:57.207Z,30.22
2023-06-27T06:17:23.840Z,30.25
2023-06-27T06:19:50.445Z,30.26
2023-06-27T06:22:17.076Z,30.26
2023-06-27T06:24:43.700Z,30.27
2023-06-27T06:27:10.305Z,30.27
2023-06-27T06:29:36.898Z,30.26
2023-06-27T06:32:03.511Z,30.27
2023-06-27T06:34:30.144Z,30.24
2023-06-27T06:36:56.765Z,30.26
2023-06-27T06:39:23.356Z,30.27
2023-06-27T06:41:49.960Z,30.27
2023-06-27T06:44:16.537Z,30.26
2023-06-27T06:46:43.219Z,30.26
2023-06-27T06:49:09.918Z,30.28
2023-06-27T06:51:36.498Z,30.27
2023-06-27T06:54:03.083Z,30.27
2023-06-27T06:56:29.673Z,30.27
2023-06-27T06:58:56.264Z,30.29
2023-06-27T07:01:22.891Z,30.28
2023-06-27T07:03:49.521Z,30.31
2023-06-27T07:06:16.114Z,30.32
2023-06-27T07:08:42.700Z,30.30
2023-06-27T07:11:09.325Z,30.30
2023-06-27T07:13:35.911Z,30.30
2023-06-27T07:16:02.533Z,30.33
2023-06-27T07:18:29.138Z,30.31
2023-06-27T07:20:55.726Z,30.32
2023-06-27T07:23:22.555Z,30.29
2023-06-27T07:25:49.152Z,30.28
2023-06-27T07:28:15.793Z,30.28
2023-06-27T07:30:42.525Z,30.27
2023-06-27T07:33:09.563Z,30.27
2023-06-27T07:35:36.207Z,30.25
2023-06-27T07:38:02.785Z,30.25
2023-06-27T07:40:29.388Z,30.26
2023-06-27T07:42:55.981Z,30.28
2023-06-27T07:45:22.588Z,30.28
2023-06-27T07:47:49.223Z,30.30
2023-06-27T07:50:15.892Z,30.30
2023-06-27T07:52:42.473Z,30.34
2023-06-27T07:55:09.074Z,30.36
2023-06-27T07:57:35.654Z,30.37
2023-06-27T08:00:02.328Z,30.37
2023-06-27T08:02:29.010Z,30.33
2023-06-27T08:04:55.628Z,30.33
2023-06-27T08:07:22.324Z,30.32
2023-06-27T08:09:48.975Z,30.33
2023-06-27T08:12:15.639Z,30.32
2023-06-27T08:14:42.279Z,30.33
2023-06-27T08:17:08.953Z,30.31
2023-06-27T08:19:35.606Z,30.30
2023-06-27T08:22:02.216Z,30.29
2023-06-27T08:24:28.806Z,30.29
2023-06-27T08:26:55.470Z,30.28
2023-06-27T08:29:22.066Z,30.33
2023-06-27T08:31:48.704Z,30.35
2023-06-27T08:34:15.320Z,30.35
2023-06-27T08:36:41.892Z,30.39
2023-06-27T08:39:08.472Z,30.40
2023-06-27T08:41:35.093Z,30.42
2023-06-27T08:44:01.690Z,30.40
2023-06-27T08:46:28.291Z,30.40
2023-06-27T08:48:54.859Z,30.39
2023-06-27T08:51:21.456Z,30.37
2023-06-27T08:53:48.133Z,30.37
2023-06-27T08:56:14.730Z,30.36
2023-06-27T08:58:41.322Z,30.35
2023-06-27T09:01:07.948Z,30.35
2023-06-27T09:03:34.607Z,30.36
2023-06-27T09:06:01.256Z,30.35
2023-06-27T09:08:27.960Z,30.35
2023-06-27T09:10:54.559Z,30.32
2023-06-27T09:13:21.175Z,30.34
2023-06-27T09:15:47.770Z,30.34
2023-06-27T09:18:14.422Z,30.38
2023-06-27T09:20:41.263Z,30.40
2023-06-27T09:23:07.981Z,30.42
2023-06-27T09:25:34.606Z,30.42
2023-06-27T09:28:01.229Z,30.42
2023-06-27T09:30:27.830Z,30.44
2023-06-27T09:32:54.489Z,30.46
2023-06-27T09:35:40.268Z,30.45
2023-06-27T09:40:37.200Z,30.43
2023-06-27T09:43:03.802Z,30.41
2023-06-27T09:45:30.465Z,30.42
2023-06-27T09:47:57.106Z,30.42
2023-06-27T09:50:23.801Z,30.42
2023-06-27T09:52:50.409Z,30.40
2023-06-27T09:55:17.008Z,30.40
2023-06-27T09:57:43.603Z,30.40
2023-06-27T10:00:10.222Z,30.40
2023-06-27T10:02:36.851Z,30.33
2023-06-27T10:05:03.553Z,30.20
2023-06-27T10:07:30.222Z,30.24
2023-06-27T10:09:57.672Z,30.28
2023-06-27T10:12:24.273Z,30.37
2023-06-27T10:14:50.904Z,30.40
2023-06-27T10:17:17.523Z,30.43
2023-06-27T10:19:44.138Z,30.42
2023-06-27T10:22:10.764Z,30.43
2023-06-27T10:24:38.553Z,30.46
2023-06-27T10:27:06.902Z,30.46
2023-06-27T10:29:33.498Z,30.47
2023-06-27T10:32:00.112Z,30.47
2023-06-27T10:34:26.721Z,30.48
2023-06-27T10:36:53.320Z,30.46
2023-06-27T10:39:19.929Z,30.46
2023-06-27T10:41:46.533Z,30.48
2023-06-27T10:44:13.119Z,30.48
2023-06-27T10:46:39.716Z,30.48
2023-06-27T10:49:06.326Z,30.47
2023-06-27T10:51:32.917Z,30.48
2023-06-27T10:53:59.567Z,30.48
2023-06-27T10:56:26.189Z,30.51
2023-06-27T10:58:52.784Z,30.51
2023-06-27T11:01:19.451Z,30.49
2023-06-27T11:03:46.178Z,30.51
2023-06-27T11:06:12.907Z,30.52
2023-06-27T11:08:39.522Z,30.49
2023-06-27T11:11:06.145Z,30.47
2023-06-27T11:13:32.761Z,30.50
2023-06-27T11:15:59.465Z,30.51
2023-06-27T11:18:26.118Z,30.52
2023-06-27T11:20:52.715Z,30.53
2023-06-27T11:23:19.328Z,30.58
2023-06-27T11:25:45.947Z,30.55
2023-06-27T11:28:12.543Z,30.53
2023-06-27T11:30:39.388Z,30.54
2023-06-27T11:33:06.420Z,30.53
2023-06-27T11:35:33.112Z,30.56
2023-06-27T11:38:00.012Z,30.52
2023-06-27T11:40:26.779Z,30.52
2023-06-27T11:42:53.387Z,30.53
2023-06-27T11:45:20.002Z,30.58
2023-06-27T11:47:46.653Z,30.60
2023-06-27T11:50:13.280Z,30.59
2023-06-27T11:52:39.867Z,30.59
2023-06-27T11:55:06.470Z,30.59
2023-06-27T11:57:33.089Z,30.57
2023-06-27T11:59:59.741Z,30.58
2023-06-27T12:02:26.463Z,30.57
2023-06-27T12:04:53.109Z,30.61
2023-06-27T12:07:19.733Z,30.59
2023-06-27T12:09:46.408Z,30.59
2023-06-27T12:12:13.016Z,30.58
2023-06-27T12:14:39.641Z,30.58
2023-06-27T12:17:06.281Z,30.57
2023-06-27T12:19:32.894Z,30.59
2023-06-27T12:21:59.490Z,30.59
2023-06-27T12:24:26.090Z,30.55
2023-06-27T12:26:52.730Z,30.54
2023-06-27T12:29:20.330Z,30.58
2023-06-27T12:31:47.169Z,30.59
2023-06-27T12:34:13.771Z,30.59
2023-06-27T12:36:40.348Z,30.63
2023-06-27T12:39:06.951Z,30.63
2023-06-27T12:41:33.561Z,30.65
2023-06-27T12:44:00.217Z,30.63
2023-06-27T12:46:26.880Z,30.63
2023-06-27T12:48:53.510Z,30.65
2023-06-27T12:51:21.369Z,30.64
2023-06-27T12:53:48.096Z,30.63
2023-06-27T12:56:14.745Z,30.62
2023-06-27T12:58:41.342Z,30.62
2023-06-27T13:01:07.955Z,30.63
2023-06-27T13:03:34.726Z,30.61
2023-06-27T13:06:01.412Z,30.63
2023-06-27T13:08:28.017Z,30.63
2023-06-27T13:10:54.637Z,30.61
2023-06-27T13:13:21.241Z,30.62
2023-06-27T13:16:03.930Z,30.62
2023-06-27T13:18:34.684Z,30.64
2023-06-27T13:21:01.292Z,30.66
2023-06-27T13:23:27.887Z,30.68
2023-06-27T13:25:54.498Z,30.70
2023-06-27T13:28:21.118Z,30.72
2023-06-27T13:30:47.802Z,30.72
2023-06-27T13:33:14.496Z,30.72
2023-06-27T13:35:41.144Z,30.72
2023-06-27T13:38:07.780Z,30.70
2023-06-27T13:40:34.410Z,30.73
2023-06-27T13:43:01.113Z,30.69
2023-06-27T13:45:27.701Z,30.69
2023-06-27T13:47:54.357Z,30.67
2023-06-27T13:50:21.047Z,30.69
2023-06-27T13:52:47.669Z,30.69
2023-06-27T13:55:14.277Z,30.69
2023-06-27T13:57:40.921Z,30.73
2023-06-27T14:00:07.633Z,30.72
2023-06-27T14:02:34.354Z,30.69
2023-06-27T14:05:01.054Z,30.73
2023-06-27T14:07:27.696Z,30.74
2023-06-27T14:09:54.353Z,30.77
2023-06-27T14:12:20.984Z,30.77
2023-06-27T14:14:47.608Z,30.76
2023-06-27T14:17:14.217Z,30.77
2023-06-27T14:19:40.808Z,30.76
2023-06-27T14:22:07.410Z,30.77
2023-06-27T14:24:34.044Z,30.76
2023-06-27T14:27:00.653Z,30.77
2023-06-27T14:29:27.244Z,30.77
2023-06-27T14:31:53.840Z,30.75
2023-06-27T14:34:20.453Z,30.77
2023-06-27T14:36:47.061Z,30.76
2023-06-27T14:39:14.574Z,30.75
2023-06-27T14:41:41.417Z,30.73
2023-06-27T14:44:08.036Z,30.73
2023-06-27T14:46:34.638Z,30.73
2023-06-27T14:49:01.243Z,30.72
2023-06-27T14:51:27.864Z,30.72
2023-06-27T14:53:54.524Z,30.76
2023-06-27T14:56:21.136Z,30.76
2023-06-27T14:58:47.721Z,30.78
2023-06-27T15:01:14.505Z,30.78
2023-06-27T15:03:41.381Z,30.83
2023-06-27T15:06:08.100Z,30.82
2023-06-27T15:08:34.691Z,30.86
2023-06-27T15:11:01.321Z,30.87
2023-06-27T15:13:27.897Z,30.87
2023-06-27T15:15:54.483Z,30.86
2023-06-27T15:18:21.151Z,30.87
2023-06-27T15:20:47.782Z,30.86
2023-06-27T15:23:22.311Z,30.86
2023-06-27T15:25:56.186Z,30.88
2023-06-27T15:28:22.776Z,30.88
2023-06-27T15:30:49.399Z,30.90
2023-06-27T15:33:16.026Z,30.90
2023-06-27T15:35:42.945Z,30.90
2023-06-27T15:38:09.817Z,30.89
2023-06-27T15:40:36.396Z,30.89
2023-06-27T15:43:03.205Z,30.92
2023-06-27T15:45:29.863Z,30.92
2023-06-27T15:47:56.489Z,30.95
2023-06-27T15:50:23.128Z,30.96
2023-06-27T15:52:49.719Z,31.04
2023-06-27T15:55:16.314Z,31.08
2023-06-27T15:57:42.886Z,31.09
2023-06-27T16:00:09.476Z,31.13
2023-06-27T16:02:36.138Z,31.17
2023-06-27T16:05:02.907Z,31.18
2023-06-27T16:07:29.711Z,31.19
2023-06-27T16:09:56.422Z,31.25
2023-06-27T16:12:23.020Z,31.29
2023-06-27T16:14:49.616Z,31.33
2023-06-27T16:17:16.210Z,31.38
2023-06-27T16:19:42.845Z,31.37
2023-06-27T16:22:09.440Z,31.45
2023-06-27T16:24:36.018Z,31.48
2023-06-27T16:27:02.623Z,31.48
2023-06-27T16:29:29.202Z,31.52
2023-06-27T16:31:55.991Z,31.54
2023-06-27T16:34:22.658Z,31.60
2023-06-27T16:36:49.282Z,31.60
2023-06-27T16:39:15.857Z,31.74
2023-06-27T16:41:42.437Z,31.82
2023-06-27T16:44:11.232Z,31.87
2023-06-27T16:46:38.151Z,31.81
2023-06-27T16:49:04.768Z,31.81
2023-06-27T16:51:31.382Z,31.80
2023-06-27T16:53:57.961Z,31.76
2023-06-27T16:56:24.535Z,31.71
2023-06-27T16:58:51.117Z,31.58
2023-06-27T17:01:17.709Z,31.42
2023-06-27T17:03:44.342Z,31.40
2023-06-27T17:06:11.029Z,31.38
2023-06-27T17:08:37.615Z,31.35
2023-06-27T17:11:04.247Z,31.31
2023-06-27T17:13:30.849Z,31.26
2023-06-27T17:15:57.429Z,31.30
2023-06-27T17:18:24.066Z,31.34
2023-06-27T17:20:50.688Z,31.27
2023-06-27T17:23:17.321Z,31.30
2023-06-27T17:25:44.123Z,31.31
2023-06-27T17:28:10.823Z,31.28
2023-06-27T17:30:37.442Z,31.29
2023-06-27T17:33:04.108Z,31.32
2023-06-27T17:35:30.722Z,31.31
2023-06-27T17:37:57.318Z,31.33
2023-06-27T17:40:23.889Z,31.31
2023-06-27T17:42:50.496Z,31.27
2023-06-27T17:45:17.087Z,31.24
2023-06-27T17:47:43.712Z,31.22
2023-06-27T17:50:10.386Z,31.20
2023-06-27T17:52:37.026Z,31.19
2023-06-27T17:55:03.634Z,31.18
2023-06-27T17:57:30.223Z,31.19
2023-06-27T17:59:56.823Z,31.18
2023-06-27T18:02:23.498Z,31.18
2023-06-27T18:04:50.113Z,31.18
2023-06-27T18:07:32.549Z,31.15
2023-06-27T18:10:03.248Z,31.19
2023-06-27T18:12:29.838Z,31.19
2023-06-27T18:14:56.422Z,31.18
2023-06-27T18:17:23.029Z,31.17
2023-06-27T18:19:49.660Z,31.18
2023-06-27T18:22:16.240Z,31.19
2023-06-27T18:24:42.844Z,31.16
2023-06-27T18:27:09.431Z,31.15
2023-06-27T18:29:36.035Z,31.14
2023-06-27T18:32:02.649Z,31.14
2023-06-27T18:34:29.365Z,31.12
2023-06-27T18:36:55.947Z,30.92
2023-06-27T18:39:22.540Z,30.49
2023-06-27T18:41:49.158Z,30.24
2023-06-27T18:44:15.767Z,29.96
2023-06-27T18:46:42.344Z,29.80
2023-06-27T18:49:08.944Z,29.72
2023-06-27T18:51:35.532Z,29.71
2023-06-27T18:54:02.142Z,29.61
2023-06-27T18:56:28.727Z,29.46
2023-06-27T18:58:55.333Z,29.41
2023-06-27T19:01:21.993Z,29.33
2023-06-27T19:03:48.641Z,29.41
2023-06-27T19:06:15.333Z,29.38
2023-06-27T19:08:42.026Z,29.45
2023-06-27T19:11:08.600Z,29.48
2023-06-27T19:13:35.232Z,29.46
2023-06-27T19:16:01.823Z,29.44
2023-06-27T19:18:28.909Z,29.40
2023-06-27T19:20:55.954Z,29.39
2023-06-27T19:23:23.034Z,29.39
2023-06-27T19:25:49.616Z,29.31
2023-06-27T19:28:16.234Z,29.31
2023-06-27T19:30:43.177Z,29.35
2023-06-27T19:33:09.968Z,29.37
2023-06-27T19:35:36.563Z,29.34
2023-06-27T19:38:03.154Z,29.35
2023-06-27T19:40:29.759Z,29.32
2023-06-27T19:42:56.369Z,29.25
2023-06-27T19:45:22.983Z,29.24
2023-06-27T19:47:49.627Z,29.26
2023-06-27T19:50:16.254Z,29.25
2023-06-27T19:52:42.823Z,29.21
2023-06-27T19:55:09.426Z,29.15
2023-06-27T19:57:36.008Z,29.16
2023-06-27T20:00:02.593Z,29.19
2023-06-27T20:02:29.251Z,29.19
2023-06-27T20:04:55.868Z,29.16
2023-06-27T20:07:22.533Z,29.22
2023-06-27T20:09:49.153Z,29.23
2023-06-27T20:12:15.763Z,29.31
2023-06-27T20:14:42.356Z,29.31
2023-06-27T20:17:11.694Z,29.30
2023-06-27T20:19:38.281Z,29.28
2023-06-27T20:22:04.865Z,29.25
2023-06-27T20:24:31.464Z,29.31
2023-06-27T20:26:58.070Z,29.26
2023-06-27T20:29:24.635Z,29.27
2023-06-27T20:31:51.257Z,29.28
2023-06-27T20:34:17.858Z,29.25
2023-06-27T20:36:44.449Z,29.29
2023-06-27T20:39:11.063Z,29.31
2023-06-27T20:41:37.691Z,29.33
2023-06-27T20:44:04.279Z,29.34
2023-06-27T20:46:30.876Z,29.35
2023-06-27T20:48:57.480Z,29.38
2023-06-27T20:51:24.063Z,29.39
2023-06-27T20:53:50.670Z,29.38
2023-06-27T20:56:17.236Z,29.33
2023-06-27T20:58:43.828Z,29.34
2023-06-27T21:01:10.431Z,29.38
2023-06-27T21:03:37.161Z,29.40
2023-06-27T21:06:03.804Z,29.40
2023-06-27T21:08:30.402Z,29.46
2023-06-27T21:10:57.031Z,29.50
2023-06-27T21:13:23.620Z,29.51
2023-06-27T21:15:50.216Z,29.54
2023-06-27T21:18:16.805Z,29.54
2023-06-27T21:20:43.661Z,29.55
2023-06-27T21:23:10.481Z,29.57
2023-06-27T21:25:37.172Z,29.58
2023-06-27T21:28:03.769Z,29.59
2023-06-27T21:30:30.414Z,29.59
2023-06-27T21:32:57.070Z,29.59
2023-06-27T21:35:23.696Z,29.60
2023-06-27T21:37:50.285Z,29.59
2023-06-27T21:40:16.889Z,29.56
2023-06-27T21:42:43.502Z,29.56
2023-06-27T21:45:10.094Z,29.56
2023-06-27T21:47:36.755Z,29.57
2023-06-27T21:50:03.363Z,29.57
2023-06-27T21:52:29.940Z,29.58
2023-06-27T21:54:56.544Z,29.58
2023-06-27T21:57:23.137Z,29.58
2023-06-27T21:59:49.722Z,29.57
2023-06-27T22:02:16.340Z,29.62
2023-06-27T22:04:43.054Z,29.64
2023-06-27T22:07:09.927Z,29.64
2023-06-27T22:09:36.566Z,29.65
2023-06-27T22:12:03.157Z,29.68
2023-06-27T22:14:29.780Z,29.69
2023-06-27T22:16:56.393Z,29.68
2023-06-27T22:19:22.975Z,29.62
2023-06-27T22:21:49.561Z,29.62
2023-06-27T22:24:16.167Z,29.61
2023-06-27T22:26:42.788Z,29.59
2023-06-27T22:29:09.378Z,29.59
2023-06-27T22:31:36.004Z,29.57
2023-06-27T22:34:02.622Z,29.55
2023-06-27T22:36:29.210Z,29.54
2023-06-27T22:38:55.848Z,29.54
2023-06-27T22:41:22.457Z,29.52
2023-06-27T22:43:49.044Z,29.55
2023-06-27T22:46:15.692Z,29.54
2023-06-27T22:48:42.285Z,29.53
2023-06-27T22:51:08.880Z,29.55
2023-06-27T22:53:35.472Z,29.63
2023-06-27T22:56:02.056Z,29.67
2023-06-27T22:58:28.662Z,29.70
2023-06-27T23:00:55.291Z,29.72
2023-06-27T23:03:21.896Z,29.73
2023-06-27T23:05:48.501Z,29.74
2023-06-27T23:08:15.099Z,29.70
2023-06-27T23:10:41.900Z,29.71
2023-06-27T23:13:08.717Z,29.69
2023-06-27T23:15:35.313Z,29.65
2023-06-27T23:18:01.986Z,29.66
2023-06-27T23:20:28.678Z,29.65
2023-06-27T23:22:55.348Z,29.64
2023-06-27T23:25:21.928Z,29.63
2023-06-27T23:27:48.590Z,29.61
2023-06-27T23:30:15.240Z,29.61
2023-06-27T23:32:41.885Z,29.60
2023-06-27T23:35:08.510Z,29.61
2023-06-27T23:37:35.091Z,29.53
2023-06-27T23:40:01.683Z,29.56
2023-06-27T23:42:28.290Z,29.57
2023-06-27T23:44:54.886Z,29.58
2023-06-27T23:47:21.519Z,29.63
2023-06-27T23:49:48.142Z,29.64
2023-06-27T23:52:14.728Z,29.66
2023-06-27T23:54:41.316Z,29.67
2023-06-27T23:57:07.917Z,29.68
2023-06-27T23:59:34.530Z,29.66
